This is the latest recevied weather packets stored in our database for station/object N9BLE. If no packets are shown the sender has not sent any weather packets the latest 1 day(s).
| Time | Temp. | Humidity | Pressure | Rain* | Wind** | Luminosity | Snow |
|---|---|---|---|---|---|---|---|
| 1777973581 | 10° C | 55% | 1010 hPa | 0 mm | 0.89 m/s, 28° | 0 W/m² | - |
| 1777973277 | 10° C | 55% | 1010 hPa | 0 mm | 0.45 m/s, 49° | 0 W/m² | - |
| 1777972976 | 10° C | 55% | 1010 hPa | 0 mm | 0.45 m/s, 68° | 0 W/m² | - |
| 1777972673 | 10.56° C | 55% | 1010.1 hPa | 0 mm | 0.89 m/s, 354° | 0 W/m² | - |
| 1777972371 | 10.56° C | 54% | 1009.9 hPa | 0 mm | 0.45 m/s, 14° | 0 W/m² | - |
| 1777972068 | 10.56° C | 52% | 1010.2 hPa | 0 mm | 0.45 m/s, 27° | 0 W/m² | - |
| 1777971766 | 10.56° C | 53% | 1010 hPa | 0 mm | 0.89 m/s, 120° | 0 W/m² | - |
| 1777971463 | 10.56° C | 52% | 1010.2 hPa | 0 mm | 0.89 m/s, 261° | 0 W/m² | - |
| 1777971161 | 10.56° C | 52% | 1009.7 hPa | 0 mm | 0 m/s | 0 W/m² | - |
| 1777970858 | 11.11° C | 51% | 1009.5 hPa | 0 mm | 0.45 m/s, 66° | 0 W/m² | - |
| 1777970558 | 11.11° C | 51% | 1009.4 hPa | 0 mm | 0.45 m/s, 47° | 0 W/m² | - |
| 1777970254 | 11.11° C | 53% | 1009.4 hPa | 0 mm | 0.89 m/s, 3° | 0 W/m² | - |
| 1777969950 | 11.11° C | 55% | 1009.2 hPa | 0 mm | 0.45 m/s, 18° | 0 W/m² | - |
| 1777969646 | 10.56° C | 58% | 1008.9 hPa | 0 mm | 0 m/s | 0 W/m² | - |
| 1777969344 | 10.56° C | 58% | 1008.7 hPa | 0 mm | 0.45 m/s, 36° | 0 W/m² | - |
| 1777969039 | 10.56° C | 59% | 1008.5 hPa | 0 mm | 0 m/s | 0 W/m² | - |
| 1777968737 | 10.56° C | 59% | 1008.6 hPa | 0 mm | 0.45 m/s, 331° | 0 W/m² | - |
| 1777968434 | 10.56° C | 58% | 1008.5 hPa | 0 mm | 0.45 m/s, 314° | 0 W/m² | - |
| 1777968130 | 10.56° C | 59% | 1008.1 hPa | 0 mm | 0 m/s | 0 W/m² | - |
| 1777967826 | 10.56° C | 59% | 1007.9 hPa | 0 mm | 0.45 m/s, 6° | 0 W/m² | - |
| 1777967523 | 10.56° C | 60% | 1007.9 hPa | 0 mm | 0.45 m/s, 237° | 0 W/m² | - |
| 1777967220 | 10.56° C | 59% | 1007.8 hPa | 0 mm | 0 m/s | 0 W/m² | - |
| 1777966917 | 10.56° C | 58% | 1007.6 hPa | 0 mm | 0.45 m/s, 3° | 0 W/m² | - |
| 1777966615 | 10.56° C | 58% | 1007.6 hPa | 0 mm | 0.45 m/s, 1° | 0 W/m² | - |
| 1777966313 | 10.56° C | 58% | 1007.6 hPa | 0 mm | 0.89 m/s, 269° | 0 W/m² | - |
* Rain latest hour (hover to see other rain measurements)
** Current wind speed in m/s (hover to see current wind gust speed)